sensor_id;sensor_type;location;lat;lon;timestamp;pressure;altitude;pressure_sealevel;temperature;humidity
23176;BME280;19910;42.652;23.332;2024-03-02T00:01:24;94027.88;;;7.95;100.00
23176;BME280;19910;42.652;23.332;2024-03-02T00:03:51;94034.38;;;7.94;100.00
23176;BME280;19910;42.652;23.332;2024-03-02T00:06:19;94027.75;;;7.91;100.00
23176;BME280;19910;42.652;23.332;2024-03-02T00:08:48;94039.31;;;7.92;100.00
23176;BME280;19910;42.652;23.332;2024-03-02T00:11:15;94026.28;;;7.94;100.00
23176;BME280;19910;42.652;23.332;2024-03-02T00:13:45;94023.72;;;7.97;100.00
23176;BME280;19910;42.652;23.332;2024-03-02T00:16:11;94021.19;;;8.01;100.00
23176;BME280;19910;42.652;23.332;2024-03-02T00:18:38;94018.66;;;7.96;100.00
23176;BME280;19910;42.652;23.332;2024-03-02T00:21:06;94018.53;;;7.92;100.00
23176;BME280;19910;42.652;23.332;2024-03-02T00:23:35;94016.16;;;7.91;100.00
23176;BME280;19910;42.652;23.332;2024-03-02T00:26:05;94009.97;;;7.90;100.00
23176;BME280;19910;42.652;23.332;2024-03-02T00:28:34;94017.47;;;7.84;100.00
23176;BME280;19910;42.652;23.332;2024-03-02T00:31:03;94012.06;;;7.84;100.00
23176;BME280;19910;42.652;23.332;2024-03-02T00:33:31;94013.66;;;7.85;100.00
23176;BME280;19910;42.652;23.332;2024-03-02T00:35:59;94016.50;;;7.80;100.00
23176;BME280;19910;42.652;23.332;2024-03-02T00:38:27;94013.66;;;7.85;100.00
23176;BME280;19910;42.652;23.332;2024-03-02T00:40:54;94012.06;;;7.84;100.00
23176;BME280;19910;42.652;23.332;2024-03-02T00:43:44;94011.56;;;7.91;100.00
23176;BME280;19910;42.652;23.332;2024-03-02T00:46:12;94014.59;;;7.90;100.00
23176;BME280;19910;42.652;23.332;2024-03-02T00:48:46;93999.31;;;7.94;100.00
23176;BME280;19910;42.652;23.332;2024-03-02T00:51:14;94007.41;;;7.94;100.00
23176;BME280;19910;42.652;23.332;2024-03-02T00:53:41;94010.78;;;7.91;100.00
23176;BME280;19910;42.652;23.332;2024-03-02T00:56:09;94006.97;;;7.92;100.00
23176;BME280;19910;42.652;23.332;2024-03-02T00:58:37;94007.41;;;7.94;100.00
23176;BME280;19910;42.652;23.332;2024-03-02T01:01:06;94009.06;;;8.07;100.00
23176;BME280;19910;42.652;23.332;2024-03-02T01:03:33;94013.56;;;8.03;100.00
23176;BME280;19910;42.652;23.332;2024-03-02T01:06:00;94008.44;;;8.10;100.00
23176;BME280;19910;42.652;23.332;2024-03-02T01:08:27;94017.00;;;8.12;100.00
23176;BME280;19910;42.652;23.332;2024-03-02T01:10:54;94013.81;;;8.10;100.00
23176;BME280;19910;42.652;23.332;2024-03-02T01:13:21;94003.97;;;8.14;100.00
23176;BME280;19910;42.652;23.332;2024-03-02T01:15:49;94002.56;;;8.08;100.00
23176;BME280;19910;42.652;23.332;2024-03-02T01:18:17;94006.06;;;8.08;100.00
23176;BME280;19910;42.652;23.332;2024-03-02T01:20:44;93990.81;;;8.12;100.00
23176;BME280;19910;42.652;23.332;2024-03-02T01:23:11;93986.19;;;8.13;100.00
23176;BME280;19910;42.652;23.332;2024-03-02T01:25:37;93986.34;;;8.16;100.00
23176;BME280;19910;42.652;23.332;2024-03-02T01:28:05;93965.81;;;8.24;100.00
23176;BME280;19910;42.652;23.332;2024-03-02T01:30:32;93981.53;;;8.22;100.00
23176;BME280;19910;42.652;23.332;2024-03-02T01:32:59;93965.56;;;8.17;100.00
23176;BME280;19910;42.652;23.332;2024-03-02T01:35:28;93991.84;;;8.20;100.00
23176;BME280;19910;42.652;23.332;2024-03-02T01:37:55;93980.41;;;8.23;100.00
23176;BME280;19910;42.652;23.332;2024-03-02T01:40:22;93971.84;;;8.21;100.00
23176;BME280;19910;42.652;23.332;2024-03-02T01:42:52;93985.22;;;8.17;100.00
23176;BME280;19910;42.652;23.332;2024-03-02T01:45:19;93981.75;;;8.17;100.00
23176;BME280;19910;42.652;23.332;2024-03-02T01:47:45;93973.81;;;8.12;100.00
23176;BME280;19910;42.652;23.332;2024-03-02T01:50:12;93978.28;;;8.08;100.00
23176;BME280;19910;42.652;23.332;2024-03-02T01:52:41;93981.44;;;8.10;100.00
23176;BME280;19910;42.652;23.332;2024-03-02T01:55:10;93961.06;;;8.00;100.00
23176;BME280;19910;42.652;23.332;2024-03-02T01:57:37;93983.44;;;8.01;100.00
23176;BME280;19910;42.652;23.332;2024-03-02T02:00:04;93977.06;;;8.05;100.00
23176;BME280;19910;42.652;23.332;2024-03-02T02:02:35;93967.25;;;8.01;100.00
23176;BME280;19910;42.652;23.332;2024-03-02T02:05:02;93973.44;;;8.01;100.00
23176;BME280;19910;42.652;23.332;2024-03-02T02:07:29;93968.69;;;7.98;100.00
23176;BME280;19910;42.652;23.332;2024-03-02T02:09:58;93972.91;;;8.08;100.00
23176;BME280;19910;42.652;23.332;2024-03-02T02:12:24;93969.28;;;8.04;100.00
23176;BME280;19910;42.652;23.332;2024-03-02T02:14:51;93965.91;;;8.07;100.00
23176;BME280;19910;42.652;23.332;2024-03-02T02:17:18;93964.22;;;8.02;100.00
23176;BME280;19910;42.652;23.332;2024-03-02T02:19:45;93961.22;;;8.04;100.00
23176;BME280;19910;42.652;23.332;2024-03-02T02:22:13;93966.06;;;8.10;100.00
23176;BME280;19910;42.652;23.332;2024-03-02T02:24:40;93957.94;;;8.19;100.00
23176;BME280;19910;42.652;23.332;2024-03-02T02:27:08;93972.66;;;8.21;100.00
23176;BME280;19910;42.652;23.332;2024-03-02T02:29:35;93980.56;;;8.27;100.00
23176;BME280;19910;42.652;23.332;2024-03-02T02:32:02;93979.09;;;8.29;100.00
23176;BME280;19910;42.652;23.332;2024-03-02T02:34:29;93973.53;;;8.34;100.00
23176;BME280;19910;42.652;23.332;2024-03-02T02:36:56;93974.13;;;8.19;100.00
23176;BME280;19910;42.652;23.332;2024-03-02T02:39:24;93969.09;;;8.09;100.00
23176;BME280;19910;42.652;23.332;2024-03-02T02:41:50;93976.28;;;8.05;100.00
23176;BME280;19910;42.652;23.332;2024-03-02T02:44:17;93973.09;;;8.03;100.00
23176;BME280;19910;42.652;23.332;2024-03-02T02:46:44;93976.44;;;8.00;100.00
23176;BME280;19910;42.652;23.332;2024-03-02T02:49:11;93976.59;;;8.03;100.00
23176;BME280;19910;42.652;23.332;2024-03-02T02:51:38;93977.38;;;8.04;100.00
23176;BME280;19910;42.652;23.332;2024-03-02T02:54:04;93979.63;;;8.02;100.00
23176;BME280;19910;42.652;23.332;2024-03-02T02:56:33;93971.69;;;7.97;100.00
23176;BME280;19910;42.652;23.332;2024-03-02T02:58:59;93968.94;;;7.84;100.00
23176;BME280;19910;42.652;23.332;2024-03-02T03:01:26;93975.91;;;7.85;100.00
23176;BME280;19910;42.652;23.332;2024-03-02T03:03:53;93983.66;;;7.87;100.00
23176;BME280;19910;42.652;23.332;2024-03-02T03:06:20;93978.13;;;7.83;100.00
23176;BME280;19910;42.652;23.332;2024-03-02T03:08:47;93972.59;;;7.80;100.00
23176;BME280;19910;42.652;23.332;2024-03-02T03:11:14;93982.13;;;7.77;100.00
23176;BME280;19910;42.652;23.332;2024-03-02T03:13:42;93977.47;;;7.87;100.00
23176;BME280;19910;42.652;23.332;2024-03-02T03:16:08;93978.13;;;7.83;100.00
23176;BME280;19910;42.652;23.332;2024-03-02T03:18:35;93973.03;;;7.91;100.00
23176;BME280;19910;42.652;23.332;2024-03-02T03:21:04;93976.72;;;8.07;100.00
23176;BME280;19910;42.652;23.332;2024-03-02T03:23:31;93975.00;;;8.23;100.00
23176;BME280;19910;42.652;23.332;2024-03-02T03:25:58;93971.19;;;8.33;100.00
23176;BME280;19910;42.652;23.332;2024-03-02T03:28:24;93980.22;;;8.28;100.00
23176;BME280;19910;42.652;23.332;2024-03-02T03:30:53;93968.97;;;8.26;100.00
23176;BME280;19910;42.652;23.332;2024-03-02T03:33:19;93978.09;;;8.13;100.00
23176;BME280;19910;42.652;23.332;2024-03-02T03:35:46;93974.56;;;8.21;100.00
23176;BME280;19910;42.652;23.332;2024-03-02T03:38:13;93978.38;;;8.20;100.00
23176;BME280;19910;42.652;23.332;2024-03-02T03:40:40;93976.34;;;8.17;100.00
23176;BME280;19910;42.652;23.332;2024-03-02T03:43:07;93973.09;;;8.32;100.00
23176;BME280;19910;42.652;23.332;2024-03-02T03:45:34;93976.88;;;8.31;100.00
23176;BME280;19910;42.652;23.332;2024-03-02T03:48:02;93974.94;;;8.40;100.00
23176;BME280;19910;42.652;23.332;2024-03-02T03:50:29;93983.75;;;8.20;100.00
23176;BME280;19910;42.652;23.332;2024-03-02T03:52:56;93980.41;;;8.32;100.00
23176;BME280;19910;42.652;23.332;2024-03-02T03:55:22;93973.72;;;8.29;100.00
23176;BME280;19910;42.652;23.332;2024-03-02T03:57:49;93977.38;;;8.33;100.00
23176;BME280;19910;42.652;23.332;2024-03-02T04:00:16;93979.03;;;8.46;100.00
23176;BME280;19910;42.652;23.332;2024-03-02T04:02:43;93982.44;;;8.55;100.00
23176;BME280;19910;42.652;23.332;2024-03-02T04:05:11;93977.28;;;8.63;100.00
23176;BME280;19910;42.652;23.332;2024-03-02T04:07:38;93978.09;;;8.42;100.00
23176;BME280;19910;42.652;23.332;2024-03-02T04:10:07;93975.25;;;8.60;100.00
23176;BME280;19910;42.652;23.332;2024-03-02T04:12:35;93971.34;;;8.48;100.00
23176;BME280;19910;42.652;23.332;2024-03-02T04:15:04;93972.41;;;8.35;100.00
23176;BME280;19910;42.652;23.332;2024-03-02T04:17:32;93978.75;;;8.39;100.00
23176;BME280;19910;42.652;23.332;2024-03-02T04:20:01;93973.19;;;8.36;100.00
23176;BME280;19910;42.652;23.332;2024-03-02T04:22:32;93977.69;;;8.52;100.00
23176;BME280;19910;42.652;23.332;2024-03-02T04:25:00;93975.44;;;8.54;100.00
23176;BME280;19910;42.652;23.332;2024-03-02T04:27:26;93981.31;;;8.57;100.00
23176;BME280;19910;42.652;23.332;2024-03-02T04:29:53;93983.13;;;8.65;100.00
23176;BME280;19910;42.652;23.332;2024-03-02T04:32:20;93982.94;;;8.70;100.00
23176;BME280;19910;42.652;23.332;2024-03-02T04:34:48;93978.47;;;8.74;100.00
23176;BME280;19910;42.652;23.332;2024-03-02T04:37:15;93983.06;;;8.73;100.00
23176;BME280;19910;42.652;23.332;2024-03-02T04:39:43;93988.28;;;8.90;100.00
23176;BME280;19910;42.652;23.332;2024-03-02T04:42:10;93980.00;;;8.75;100.00
23176;BME280;19910;42.652;23.332;2024-03-02T04:44:37;93988.59;;;8.77;100.00
23176;BME280;19910;42.652;23.332;2024-03-02T04:47:04;93984.97;;;8.73;100.00
23176;BME280;19910;42.652;23.332;2024-03-02T04:49:31;93988.97;;;8.87;100.00
23176;BME280;19910;42.652;23.332;2024-03-02T04:51:58;93987.31;;;8.95;100.00
23176;BME280;19910;42.652;23.332;2024-03-02T04:54:25;93990.63;;;8.80;100.00
23176;BME280;19910;42.652;23.332;2024-03-02T04:56:53;93988.19;;;8.87;100.00
23176;BME280;19910;42.652;23.332;2024-03-02T04:59:20;93990.06;;;8.74;100.00
23176;BME280;19910;42.652;23.332;2024-03-02T05:01:47;93993.09;;;8.73;100.00
23176;BME280;19910;42.652;23.332;2024-03-02T05:04:13;93997.50;;;8.57;100.00
23176;BME280;19910;42.652;23.332;2024-03-02T05:06:40;93993.06;;;8.31;100.00
23176;BME280;19910;42.652;23.332;2024-03-02T05:09:08;93998.03;;;8.00;100.00
23176;BME280;19910;42.652;23.332;2024-03-02T05:11:35;94005.94;;;8.05;100.00
23176;BME280;19910;42.652;23.332;2024-03-02T05:14:26;94005.56;;;8.15;100.00
23176;BME280;19910;42.652;23.332;2024-03-02T05:16:54;94007.16;;;8.07;100.00
23176;BME280;19910;42.652;23.332;2024-03-02T05:19:21;94007.97;;;8.08;100.00
23176;BME280;19910;42.652;23.332;2024-03-02T05:21:47;94010.66;;;8.08;100.00
23176;BME280;19910;42.652;23.332;2024-03-02T05:24:15;94009.19;;;7.90;100.00
23176;BME280;19910;42.652;23.332;2024-03-02T05:26:42;94012.34;;;7.92;100.00
23176;BME280;19910;42.652;23.332;2024-03-02T05:29:09;94011.50;;;8.00;100.00
23176;BME280;19910;42.652;23.332;2024-03-02T05:31:37;94017.78;;;8.12;100.00
23176;BME280;19910;42.652;23.332;2024-03-02T05:34:04;94020.00;;;8.10;100.00
23176;BME280;19910;42.652;23.332;2024-03-02T05:36:30;94018.00;;;7.99;100.00
23176;BME280;19910;42.652;23.332;2024-03-02T05:38:57;94026.53;;;8.09;100.00
23176;BME280;19910;42.652;23.332;2024-03-02T05:41:24;94031.50;;;7.99;100.00
23176;BME280;19910;42.652;23.332;2024-03-02T05:43:51;94034.56;;;7.89;100.00
23176;BME280;19910;42.652;23.332;2024-03-02T05:46:17;94035.69;;;8.17;100.00
23176;BME280;19910;42.652;23.332;2024-03-02T05:48:45;94032.56;;;8.77;100.00
23176;BME280;19910;42.652;23.332;2024-03-02T05:51:12;94039.56;;;8.37;100.00
23176;BME280;19910;42.652;23.332;2024-03-02T05:53:39;94033.25;;;8.24;100.00
23176;BME280;19910;42.652;23.332;2024-03-02T05:56:06;94036.88;;;8.28;100.00
23176;BME280;19910;42.652;23.332;2024-03-02T05:58:33;94037.28;;;8.18;100.00
23176;BME280;19910;42.652;23.332;2024-03-02T06:01:13;94044.34;;;8.31;100.00
23176;BME280;19910;42.652;23.332;2024-03-02T06:03:40;94036.38;;;8.35;100.00
23176;BME280;19910;42.652;23.332;2024-03-02T06:06:08;94034.19;;;8.58;100.00
23176;BME280;19910;42.652;23.332;2024-03-02T06:08:35;94031.81;;;8.56;100.00
23176;BME280;19910;42.652;23.332;2024-03-02T06:11:02;94035.34;;;8.69;100.00
23176;BME280;19910;42.652;23.332;2024-03-02T06:13:29;94035.97;;;8.74;100.00
23176;BME280;19910;42.652;23.332;2024-03-02T06:15:56;94036.53;;;8.80;100.00
23176;BME280;19910;42.652;23.332;2024-03-02T06:18:22;94043.09;;;8.49;100.00
23176;BME280;19910;42.652;23.332;2024-03-02T06:20:49;94043.69;;;8.34;100.00
23176;BME280;19910;42.652;23.332;2024-03-02T06:23:18;94047.13;;;8.43;100.00
23176;BME280;19910;42.652;23.332;2024-03-02T06:25:45;94048.06;;;8.18;100.00
23176;BME280;19910;42.652;23.332;2024-03-02T06:28:14;94053.03;;;8.07;100.00
23176;BME280;19910;42.652;23.332;2024-03-02T06:30:41;94050.75;;;7.89;100.00
23176;BME280;19910;42.652;23.332;2024-03-02T06:33:09;94052.81;;;7.83;100.00
23176;BME280;19910;42.652;23.332;2024-03-02T06:35:35;94052.41;;;7.72;100.00
23176;BME280;19910;42.652;23.332;2024-03-02T06:38:05;94045.09;;;7.73;100.00
23176;BME280;19910;42.652;23.332;2024-03-02T06:40:33;94050.19;;;7.74;100.00
23176;BME280;19910;42.652;23.332;2024-03-02T06:43:00;94058.63;;;7.64;100.00
23176;BME280;19910;42.652;23.332;2024-03-02T06:45:27;94061.78;;;7.66;100.00
23176;BME280;19910;42.652;23.332;2024-03-02T06:47:55;94059.06;;;7.66;100.00
23176;BME280;19910;42.652;23.332;2024-03-02T06:50:22;94061.28;;;7.73;100.00
23176;BME280;19910;42.652;23.332;2024-03-02T06:52:51;94060.31;;;7.77;100.00
23176;BME280;19910;42.652;23.332;2024-03-02T06:55:19;94063.59;;;7.92;100.00
23176;BME280;19910;42.652;23.332;2024-03-02T06:57:47;94063.00;;;8.07;100.00
23176;BME280;19910;42.652;23.332;2024-03-02T07:00:16;94059.69;;;8.10;100.00
23176;BME280;19910;42.652;23.332;2024-03-02T07:02:43;94064.69;;;8.20;100.00
23176;BME280;19910;42.652;23.332;2024-03-02T07:05:10;94063.06;;;8.28;100.00
23176;BME280;19910;42.652;23.332;2024-03-02T07:07:37;94064.59;;;8.08;100.00
23176;BME280;19910;42.652;23.332;2024-03-02T07:10:05;94057.19;;;8.05;100.00
23176;BME280;19910;42.652;23.332;2024-03-02T07:17:36;94068.31;;;8.24;100.00
23176;BME280;19910;42.652;23.332;2024-03-02T07:20:03;94075.13;;;8.01;100.00
23176;BME280;19910;42.652;23.332;2024-03-02T07:22:31;94081.00;;;7.94;100.00
23176;BME280;19910;42.652;23.332;2024-03-02T07:24:58;94074.47;;;8.04;100.00
23176;BME280;19910;42.652;23.332;2024-03-02T07:27:25;94072.09;;;8.02;100.00
23176;BME280;19910;42.652;23.332;2024-03-02T07:29:52;94070.22;;;7.94;100.00
23176;BME280;19910;42.652;23.332;2024-03-02T07:32:19;94077.56;;;7.85;100.00
23176;BME280;19910;42.652;23.332;2024-03-02T07:34:47;94076.16;;;8.17;100.00
23176;BME280;19910;42.652;23.332;2024-03-02T07:37:14;94079.41;;;8.31;100.00
23176;BME280;19910;42.652;23.332;2024-03-02T07:39:41;94081.28;;;8.39;100.00
23176;BME280;19910;42.652;23.332;2024-03-02T07:42:07;94072.72;;;8.37;100.00
23176;BME280;19910;42.652;23.332;2024-03-02T07:44:34;94079.56;;;8.35;100.00
23176;BME280;19910;42.652;23.332;2024-03-02T07:47:01;94084.63;;;8.36;100.00
23176;BME280;19910;42.652;23.332;2024-03-02T07:49:28;94082.38;;;8.47;100.00
23176;BME280;19910;42.652;23.332;2024-03-02T07:51:56;94086.38;;;8.62;100.00
23176;BME280;19910;42.652;23.332;2024-03-02T07:54:24;94088.81;;;8.54;100.00
23176;BME280;19910;42.652;23.332;2024-03-02T07:56:50;94093.16;;;8.68;100.00
23176;BME280;19910;42.652;23.332;2024-03-02T07:59:17;94099.44;;;8.60;100.00
23176;BME280;19910;42.652;23.332;2024-03-02T08:01:44;94097.00;;;8.67;100.00
23176;BME280;19910;42.652;23.332;2024-03-02T08:04:11;94091.34;;;8.60;100.00
23176;BME280;19910;42.652;23.332;2024-03-02T08:06:41;94090.53;;;8.80;100.00
23176;BME280;19910;42.652;23.332;2024-03-02T08:09:09;94096.19;;;8.45;100.00
23176;BME280;19910;42.652;23.332;2024-03-02T08:11:36;94103.88;;;8.26;100.00
23176;BME280;19910;42.652;23.332;2024-03-02T08:14:04;94107.53;;;8.21;100.00
23176;BME280;19910;42.652;23.332;2024-03-02T08:16:31;94102.28;;;8.25;100.00
23176;BME280;19910;42.652;23.332;2024-03-02T08:18:58;94103.59;;;8.19;100.00
23176;BME280;19910;42.652;23.332;2024-03-02T08:21:25;94104.00;;;8.38;100.00
23176;BME280;19910;42.652;23.332;2024-03-02T08:23:56;94102.09;;;8.39;100.00
23176;BME280;19910;42.652;23.332;2024-03-02T08:26:24;94103.81;;;8.43;100.00
23176;BME280;19910;42.652;23.332;2024-03-02T08:28:54;94104.25;;;8.16;100.00
23176;BME280;19910;42.652;23.332;2024-03-02T08:31:21;94104.47;;;8.40;100.00
23176;BME280;19910;42.652;23.332;2024-03-02T08:33:47;94106.03;;;8.41;100.00
23176;BME280;19910;42.652;23.332;2024-03-02T08:36:14;94103.66;;;8.40;100.00
23176;BME280;19910;42.652;23.332;2024-03-02T08:38:41;94101.69;;;8.49;100.00
23176;BME280;19910;42.652;23.332;2024-03-02T08:41:09;94089.84;;;8.62;100.00
23176;BME280;19910;42.652;23.332;2024-03-02T08:43:40;94087.59;;;8.73;100.00
23176;BME280;19910;42.652;23.332;2024-03-02T08:46:07;94089.69;;;8.88;100.00
23176;BME280;19910;42.652;23.332;2024-03-02T08:48:34;94094.91;;;8.72;100.00
23176;BME280;19910;42.652;23.332;2024-03-02T08:51:01;94094.22;;;8.96;100.00
23176;BME280;19910;42.652;23.332;2024-03-02T08:53:31;94080.00;;;9.08;100.00
23176;BME280;19910;42.652;23.332;2024-03-02T08:55:57;94088.19;;;8.99;100.00
23176;BME280;19910;42.652;23.332;2024-03-02T08:58:24;94088.19;;;8.99;100.00
23176;BME280;19910;42.652;23.332;2024-03-02T09:00:52;94088.94;;;9.20;100.00
23176;BME280;19910;42.652;23.332;2024-03-02T09:03:19;94089.19;;;9.27;100.00
23176;BME280;19910;42.652;23.332;2024-03-02T09:05:46;94090.69;;;9.37;100.00
23176;BME280;19910;42.652;23.332;2024-03-02T09:08:13;94095.53;;;9.44;100.00
23176;BME280;19910;42.652;23.332;2024-03-02T09:10:40;94093.41;;;9.82;100.00
23176;BME280;19910;42.652;23.332;2024-03-02T09:13:06;94101.81;;;10.26;100.00
23176;BME280;19910;42.652;23.332;2024-03-02T09:15:33;94095.81;;;10.08;100.00
23176;BME280;19910;42.652;23.332;2024-03-02T09:18:25;94101.72;;;9.77;100.00
23176;BME280;19910;42.652;23.332;2024-03-02T09:20:52;94102.53;;;9.90;100.00
23176;BME280;19910;42.652;23.332;2024-03-02T09:23:19;94108.22;;;10.09;100.00
23176;BME280;19910;42.652;23.332;2024-03-02T09:25:46;94109.38;;;10.45;100.00
23176;BME280;19910;42.652;23.332;2024-03-02T09:28:12;94115.31;;;10.14;100.00
23176;BME280;19910;42.652;23.332;2024-03-02T09:30:39;94104.88;;;9.79;100.00
23176;BME280;19910;42.652;23.332;2024-03-02T09:33:06;94106.22;;;9.73;100.00
23176;BME280;19910;42.652;23.332;2024-03-02T09:35:34;94110.59;;;10.11;100.00
23176;BME280;19910;42.652;23.332;2024-03-02T09:38:00;94109.63;;;9.82;100.00
23176;BME280;19910;42.652;23.332;2024-03-02T09:40:29;94103.97;;;9.75;100.00
23176;BME280;19910;42.652;23.332;2024-03-02T09:42:56;94109.88;;;10.02;100.00
23176;BME280;19910;42.652;23.332;2024-03-02T09:45:24;94104.25;;;9.94;100.00
23176;BME280;19910;42.652;23.332;2024-03-02T09:47:52;94112.03;;;9.96;100.00
23176;BME280;19910;42.652;23.332;2024-03-02T09:50:18;94111.75;;;10.22;100.00
23176;BME280;19910;42.652;23.332;2024-03-02T09:52:48;94113.94;;;9.83;100.00
23176;BME280;19910;42.652;23.332;2024-03-02T09:55:16;94109.81;;;9.65;100.00
23176;BME280;19910;42.652;23.332;2024-03-02T09:57:43;94117.91;;;9.53;100.00
23176;BME280;19910;42.652;23.332;2024-03-02T10:00:11;94101.91;;;9.60;100.00
23176;BME280;19910;42.652;23.332;2024-03-02T10:02:40;94108.22;;;9.64;100.00
23176;BME280;19910;42.652;23.332;2024-03-02T10:05:07;94118.06;;;9.36;100.00
23176;BME280;19910;42.652;23.332;2024-03-02T10:07:34;94110.59;;;9.33;100.00
23176;BME280;19910;42.652;23.332;2024-03-02T10:10:12;94113.81;;;9.47;100.00
23176;BME280;19910;42.652;23.332;2024-03-02T10:12:40;94104.22;;;9.37;100.00
23176;BME280;19910;42.652;23.332;2024-03-02T10:15:07;94112.13;;;9.21;100.00
23176;BME280;19910;42.652;23.332;2024-03-02T10:17:35;94115.75;;;9.25;100.00
23176;BME280;19910;42.652;23.332;2024-03-02T10:20:23;94108.69;;;9.33;100.00
23176;BME280;19910;42.652;23.332;2024-03-02T10:22:50;94108.25;;;9.10;100.00
23176;BME280;19910;42.652;23.332;2024-03-02T10:25:30;94114.09;;;9.33;100.00
23176;BME280;19910;42.652;23.332;2024-03-02T10:27:58;94116.38;;;9.10;100.00
23176;BME280;19910;42.652;23.332;2024-03-02T10:30:26;94111.84;;;9.35;100.00
23176;BME280;19910;42.652;23.332;2024-03-02T10:32:53;94106.50;;;10.05;100.00
23176;BME280;19910;42.652;23.332;2024-03-02T10:35:21;94102.16;;;9.67;100.00
23176;BME280;19910;42.652;23.332;2024-03-02T10:37:49;94108.28;;;9.88;100.00
23176;BME280;19910;42.652;23.332;2024-03-02T10:40:16;94109.63;;;9.37;100.00
23176;BME280;19910;42.652;23.332;2024-03-02T10:42:44;94112.50;;;9.32;100.00
23176;BME280;19910;42.652;23.332;2024-03-02T10:45:12;94109.25;;;9.26;100.00
23176;BME280;19910;42.652;23.332;2024-03-02T10:47:41;94110.63;;;9.12;100.00
23176;BME280;19910;42.652;23.332;2024-03-02T10:50:09;94094.09;;;9.13;100.00
23176;BME280;19910;42.652;23.332;2024-03-02T10:52:36;94102.16;;;9.01;100.00
23176;BME280;19910;42.652;23.332;2024-03-02T10:55:03;94097.25;;;8.95;100.00
23176;BME280;19910;42.652;23.332;2024-03-02T10:57:36;94095.53;;;8.90;100.00
23176;BME280;19910;42.652;23.332;2024-03-02T11:00:12;94101.63;;;8.87;100.00
23176;BME280;19910;42.652;23.332;2024-03-02T11:02:42;94094.88;;;8.93;100.00
23176;BME280;19910;42.652;23.332;2024-03-02T11:05:17;94107.22;;;8.82;100.00
23176;BME280;19910;42.652;23.332;2024-03-02T11:07:48;94098.50;;;8.76;100.00
23176;BME280;19910;42.652;23.332;2024-03-02T11:10:16;94099.09;;;8.82;100.00
23176;BME280;19910;42.652;23.332;2024-03-02T11:12:48;94091.59;;;8.87;100.00
23176;BME280;19910;42.652;23.332;2024-03-02T11:15:20;94088.16;;;8.78;100.00
23176;BME280;19910;42.652;23.332;2024-03-02T11:17:52;94100.28;;;8.72;100.00
23176;BME280;19910;42.652;23.332;2024-03-02T11:20:19;94086.56;;;8.77;100.00
23176;BME280;19910;42.652;23.332;2024-03-02T11:22:47;94081.97;;;8.99;100.00
23176;BME280;19910;42.652;23.332;2024-03-02T11:25:24;94095.69;;;8.94;100.00
23176;BME280;19910;42.652;23.332;2024-03-02T11:28:01;94087.50;;;9.02;100.00
23176;BME280;19910;42.652;23.332;2024-03-02T11:30:52;94088.19;;;8.99;100.00
23176;BME280;19910;42.652;23.332;2024-03-02T11:33:26;94094.09;;;8.72;100.00
23176;BME280;19910;42.652;23.332;2024-03-02T11:35:56;94079.56;;;8.85;100.00
23176;BME280;19910;42.652;23.332;2024-03-02T11:38:28;94084.69;;;8.99;100.00
23176;BME280;19910;42.652;23.332;2024-03-02T11:40:55;94082.25;;;8.85;100.00
23176;BME280;19910;42.652;23.332;2024-03-02T11:43:22;94083.50;;;8.87;100.00
23176;BME280;19910;42.652;23.332;2024-03-02T11:45:58;94085.81;;;8.98;100.00
23176;BME280;19910;42.652;23.332;2024-03-02T11:48:25;94089.09;;;8.82;100.00
23176;BME280;19910;42.652;23.332;2024-03-02T11:50:52;94089.59;;;8.76;100.00
23176;BME280;19910;42.652;23.332;2024-03-02T11:53:20;94090.00;;;8.66;100.00
23176;BME280;19910;42.652;23.332;2024-03-02T11:55:47;94090.22;;;8.61;100.00
23176;BME280;19910;42.652;23.332;2024-03-02T11:58:16;94096.34;;;8.70;100.00
23176;BME280;19910;42.652;23.332;2024-03-02T12:00:45;94084.06;;;8.93;100.00
23176;BME280;19910;42.652;23.332;2024-03-02T12:03:14;94077.63;;;9.06;100.00
23176;BME280;19910;42.652;23.332;2024-03-02T12:05:42;94091.44;;;9.05;100.00
23176;BME280;19910;42.652;23.332;2024-03-02T12:08:09;94089.69;;;8.67;100.00
23176;BME280;19910;42.652;23.332;2024-03-02T12:10:38;94078.16;;;8.79;100.00
23176;BME280;19910;42.652;23.332;2024-03-02T12:13:05;94092.38;;;8.67;100.00
23176;BME280;19910;42.652;23.332;2024-03-02T12:15:34;94080.38;;;8.77;100.00
23176;BME280;19910;42.652;23.332;2024-03-02T12:18:02;94087.66;;;8.85;100.00
23176;BME280;19910;42.652;23.332;2024-03-02T12:20:32;94080.91;;;8.91;100.00
23176;BME280;19910;42.652;23.332;2024-03-02T12:23:01;94082.63;;;8.96;100.00
23176;BME280;19910;42.652;23.332;2024-03-02T12:25:30;94084.88;;;8.94;100.00
23176;BME280;19910;42.652;23.332;2024-03-02T12:27:59;94089.22;;;9.07;100.00
23176;BME280;19910;42.652;23.332;2024-03-02T12:30:29;94085.38;;;9.29;100.00
23176;BME280;19910;42.652;23.332;2024-03-02T12:32:56;94085.41;;;9.41;100.00
23176;BME280;19910;42.652;23.332;2024-03-02T12:35:24;94078.94;;;9.66;100.00
23176;BME280;19910;42.652;23.332;2024-03-02T12:37:53;94079.00;;;9.45;100.00
23176;BME280;19910;42.652;23.332;2024-03-02T12:40:21;94080.53;;;9.79;100.00
23176;BME280;19910;42.652;23.332;2024-03-02T12:42:48;94077.59;;;9.72;100.00
23176;BME280;19910;42.652;23.332;2024-03-02T12:45:16;94075.59;;;9.93;100.00
23176;BME280;19910;42.652;23.332;2024-03-02T12:47:49;94087.38;;;10.22;100.00
23176;BME280;19910;42.652;23.332;2024-03-02T12:50:16;94086.19;;;9.98;100.00
23176;BME280;19910;42.652;23.332;2024-03-02T12:52:43;94084.19;;;10.08;100.00
23176;BME280;19910;42.652;23.332;2024-03-02T12:55:11;94084.31;;;10.11;100.00
23176;BME280;19910;42.652;23.332;2024-03-02T12:57:39;94081.69;;;10.03;100.00
23176;BME280;19910;42.652;23.332;2024-03-02T13:00:07;94083.47;;;9.86;100.00